Agadir, Morocco

4:30 PM WEST on September 02, 2014 (GMT +0100)
Al-Massira | Change Station
CLOSE
Current Station
Airport
Location: Agadir Al Massira,
Elevation: 243 ft
Nearby Weather Stations

Elev 243 ft 30.33 °N, 9.40 °W | Updated 30 minutes ago

Clear
Clear
81 °F
Feels Like 82 °F
N
12
Wind Variable Wind from WSW

Today
High -- | Low -- °F
--% Chance of Precip.
Yesterday
High -- | Low -- °F
Precip. -- in
7:15 AM 8:00 PM
First Quarter, 52% visible
Pressure 29.89 in
Visibility -9999.0 miles
Clouds
Heat Index 82 °F
Dew Point 63 °F
Humidity 54%
Rainfall 0.00 in
Snow Depth Not available.
UV Not available.
Pollen Not available.
Air Quality Not available.
Flu Activity Not available.
METAR GMAD 021500Z 25010KT 200V280 CAVOK 27/17 Q1012 NOSIG

More Conditions Fewer Conditions

Pressure 29.89 in
Visibility -9999.0 miles
Clouds
Heat Index 82 °F
Dew Point 63 °F
Humidity 54%
Rainfall 0.00 in
Snow Depth Not available.
UV Not available.
Pollen Not available.
Air Quality Not available.
Flu Activity Not available.
METAR GMAD 021500Z 25010KT 200V280 CAVOK 27/17 Q1012 NOSIG

More Conditions Fewer Conditions

10-Day Weather Forecast

Almanac

Astronomy

Sep. 02, 2014 Rise Set
Actual Time 7:15 AM WEST 8:00 PM WEST
Civil Twilight 6:50 AM WEST 8:24 PM WEST
Nautical Twilight 6:22 AM WEST 8:53 PM WEST
Astronomical Twilight 5:52 AM WEST 9:22 PM WEST
Moon 2:17 PM WEST 12:19 AM WEST
Length of Visible Light 13h 33m
Length of Day
12h 44m
Tomorrow will be 1m 47s shorter.
First Quarter, 52% of the Moon is Illuminated
Today
First Quarter
Sep 8
Full
Sep 15
Last Quarter
Sep 24
New
Oct 1
First Quarter

Today's Extremes

Country Highs Country Lows

Community

WunderPhotos

Upload Photos

1,749,700 photos uploaded!

Nearby

Snow Depth

Not available.

Earthquake Activity

City Distance Mag. Time & Date
No recent earthquake activity has been reported nearby.
Minimum magnitude displayed is 2.5.

Coastal Water Temperatures

Place Temperature
No Stations Reporting

Nearby Weather Stations